Aérodrome :
LOGIN :

S'inscrire | Disclaimer

   EN    FR    IT 

 










Légende :    VFR   VFR Marginal   IFR   IFR Intensif   IFR Très Intensif
Visi : 
Plafond : 
>= 8 km
>= 3000ft
5 à 8 km
1000 à 3000 ft
1500m à 5 km
500 à 1000 ft
800 à 1500m
200 à 500 ft
< 800m
< 200 ft
Symboles :   Orages  Brouillard  Fortes neiges  Fortes précipitations  Vent > 20 kt
SIGMETs :   Divers  Orages  Givrage  Turbulence  Onde Orograph.  Cendres Volcan.







- Altitude de l'aérodrome : 1367 ft
- Code IATA : FDH


EDNY - Friedrichshafen

DERNIER METAR :
  • 180620Z 08003KT CAVOK 18/18 Q1018

METARs EXPIRÉS :
  • 180550Z 07003KT CAVOK 17/17 Q1018
  • 180520Z 00000KT CAVOK 17/17 Q1018
  • 180450Z VRB01KT CAVOK 16/16 Q1018
  • 180420Z VRB02KT CAVOK 16/15 Q1018
  • 180350Z AUTO 00000KT 0500 0200/ R24/0900V2000D BCFG 16/16 Q1018

TAF TAF EDNY
Valide du 18 à 06h jusqu'au 19 à 06h UTC


180500Z 1806/1906 VRB02KT CAVOK
BECMG 1810/1812 25007KT
TEMPO 1816/1819 33020G35KT 3000 TSRA BKN040CB
TEMPO 1819/1824 RA SCT004 BKN010
TEMPO 1900/1906 BKN012
Pas de NOTAMs connus pour ce terrain.



MET'MAP, la Météo Aéronautique d'un coup d'oeil ! - Copyright ORBIFLY Décembre 2007 - Disclaimer

ORBIFLY MET'MAP TEAM :

Programmation & Développement : Alexandra Zaïnal
Conception & Développement : Baudouin d'Aumeries
Co-Programmation & Développement : Marc-Olivier Méhu
Soutien technique & logistique : Manuel Goepfert

Contact : metmap@orbifly.com




SOURCES & CREDITS :

   NOAA